CheckWX is a tool to help pilots better visualize weather data.  It is not intended as a substitute for an official pre-flight weather briefing.

05:29:34 UTC

KRUQ METAR
Mid-Carolina Regional Airport
Salisbury, North Carolina, USA
Current

1 hour ago

KRUQ 240410Z AUTO 00000KT 7SM OVC005 04/04 A3008 RMK AO2 T00410040
Observed
Feb-24 @ 04:10 UTC
Visibility
7 SM
Flight Rules
IFR
Cloud Levels
  • Overcast at 500' AGL
Temperature
C / 39°F
Dewpoint
C / 39°F
Humidity
100%
Altimeter
30.08" Hg
Pressure
1018.62 hPa
Previous

1 hour ago

KRUQ 240400Z AUTO 00000KT 7SM OVC005 04/04 A3008 RMK AO2 T00410038
Observed
Feb-24 @ 04:00 UTC
Visibility
7 SM
Flight Rules
IFR
Cloud Levels
  • Overcast at 500' AGL
Temperature
C / 39°F
Dewpoint
C / 39°F
Humidity
100%
Altimeter
30.08" Hg
Pressure
1018.62 hPa
Previous

2 hours ago

KRUQ 240340Z AUTO 00000KT 10SM OVC005 04/04 A3009 RMK AO2 T00420039
Observed
Feb-24 @ 03:40 UTC
Visibility
10 SM
Flight Rules
IFR
Cloud Levels
  • Overcast at 500' AGL
Temperature
C / 39°F
Dewpoint
C / 39°F
Humidity
100%
Altimeter
30.09" Hg
Pressure
1018.92 hPa